createdAt,value
2019-04-26T00:00:07.523Z,37.91
2019-04-26T00:02:42.671Z,37.93
2019-04-26T00:05:11.160Z,38.02
2019-04-26T00:07:40.798Z,38.03
2019-04-26T00:10:20.006Z,38.06
2019-04-26T00:12:56.078Z,38.11
2019-04-26T00:15:43.761Z,38.05
2019-04-26T00:18:12.817Z,38.05
2019-04-26T00:20:41.360Z,38.04
2019-04-26T00:23:10.821Z,38.09
2019-04-26T00:25:40.021Z,38.12
2019-04-26T00:28:08.949Z,38.16
2019-04-26T00:30:37.437Z,38.21
2019-04-26T00:33:05.918Z,38.31
2019-04-26T00:35:46.582Z,38.31
2019-04-26T00:38:04.857Z,38.40
2019-04-26T00:40:33.440Z,38.35
2019-04-26T00:43:02.137Z,38.31
2019-04-26T00:45:31.087Z,38.36
2019-04-26T00:47:59.825Z,38.42
2019-04-26T00:50:28.358Z,38.39
2019-04-26T00:52:56.814Z,38.39
2019-04-26T00:55:25.276Z,38.57
2019-04-26T00:57:53.742Z,38.51
2019-04-26T01:00:23.594Z,38.57
2019-04-26T01:02:54.797Z,38.69
2019-04-26T01:05:23.322Z,38.63
2019-04-26T01:07:53.865Z,38.67
2019-04-26T01:10:23.721Z,38.71
2019-04-26T01:12:52.319Z,38.53
2019-04-26T01:15:22.024Z,38.50
2019-04-26T01:17:51.178Z,38.55
2019-04-26T01:20:20.402Z,38.57
2019-04-26T01:22:50.127Z,38.50
2019-04-26T01:25:35.450Z,38.61
2019-04-26T01:28:03.937Z,38.88
2019-04-26T01:30:32.478Z,39.10
2019-04-26T01:33:01.131Z,39.45
2019-04-26T01:35:29.594Z,39.42
2019-04-26T01:37:58.386Z,39.27
2019-04-26T01:40:28.545Z,39.33
2019-04-26T01:43:04.418Z,39.44
2019-04-26T01:45:43.764Z,39.63
2019-04-26T01:48:37.210Z,39.92
2019-04-26T01:51:05.896Z,40.05
2019-04-26T01:53:34.489Z,40.38
2019-04-26T01:56:02.952Z,40.49
2019-04-26T01:58:31.457Z,40.31
2019-04-26T02:01:11.795Z,40.42
2019-04-26T02:03:40.217Z,40.65
2019-04-26T02:06:08.732Z,40.76
2019-04-26T02:08:37.169Z,40.72
2019-04-26T02:11:05.940Z,40.41
2019-04-26T02:13:34.454Z,40.14
2019-04-26T02:16:03.089Z,39.98
2019-04-26T02:18:31.784Z,40.00
2019-04-26T02:21:27.980Z,40.18
2019-04-26T02:24:00.960Z,40.40
2019-04-26T02:26:36.822Z,40.52
2019-04-26T02:29:06.497Z,40.51
2019-04-26T02:31:37.461Z,40.73
2019-04-26T02:34:05.635Z,40.84
2019-04-26T02:36:55.232Z,40.96
2019-04-26T02:39:15.962Z,40.96
2019-04-26T02:41:45.498Z,40.76
2019-04-26T02:44:13.975Z,40.85
2019-04-26T02:46:59.010Z,40.96
2019-04-26T02:49:35.095Z,41.03
2019-04-26T02:52:22.751Z,41.05
2019-04-26T02:55:02.425Z,41.22
2019-04-26T02:57:46.209Z,41.25
2019-04-26T03:00:14.802Z,41.39
2019-04-26T03:02:43.933Z,41.73
2019-04-26T03:05:12.767Z,41.84
2019-04-26T03:08:09.248Z,41.75
2019-04-26T03:10:43.415Z,41.89
2019-04-26T03:13:20.691Z,41.94
2019-04-26T03:16:01.619Z,41.76
2019-04-26T03:18:43.868Z,41.76
2019-04-26T03:21:19.436Z,41.69
2019-04-26T03:23:59.534Z,41.67
2019-04-26T03:26:43.340Z,41.77
2019-04-26T03:29:20.493Z,41.96
2019-04-26T03:32:05.457Z,42.13
2019-04-26T03:34:53.914Z,42.23
2019-04-26T03:37:45.466Z,42.45
2019-04-26T03:40:29.864Z,42.58
2019-04-26T03:43:08.535Z,42.66
2019-04-26T03:45:55.424Z,42.67
2019-04-26T03:48:51.627Z,42.67
2019-04-26T03:51:40.743Z,42.90
2019-04-26T03:54:14.099Z,43.00
2019-04-26T03:57:14.917Z,43.00
2019-04-26T04:00:38.882Z,42.89
2019-04-26T04:03:32.388Z,42.83
2019-04-26T04:06:00.981Z,43.02
2019-04-26T04:08:48.106Z,43.04
2019-04-26T04:11:19.928Z,43.01
2019-04-26T04:13:53.188Z,43.06
2019-04-26T04:16:56.755Z,43.16
2019-04-26T04:19:57.950Z,43.19
2019-04-26T04:22:29.122Z,43.26
2019-04-26T04:25:00.653Z,43.50
2019-04-26T04:27:36.120Z,43.52
2019-04-26T04:30:35.685Z,43.57
2019-04-26T04:33:11.357Z,43.64
2019-04-26T04:35:53.027Z,43.71
2019-04-26T04:39:12.333Z,43.79
2019-04-26T04:41:54.231Z,43.87
2019-04-26T04:44:33.507Z,43.94
2019-04-26T04:47:24.313Z,43.99
2019-04-26T04:49:59.611Z,43.95
2019-04-26T04:53:06.211Z,43.92
2019-04-26T04:55:53.051Z,44.03
2019-04-26T04:58:22.906Z,44.22
2019-04-26T05:01:46.322Z,44.18
2019-04-26T05:04:24.881Z,44.24
2019-04-26T05:07:30.770Z,44.35
2019-04-26T05:10:08.969Z,44.45
2019-04-26T05:12:47.891Z,44.64
2019-04-26T05:15:46.430Z,44.49
2019-04-26T05:18:50.623Z,44.73
2019-04-26T05:21:57.612Z,44.74
2019-04-26T05:24:37.951Z,45.40
2019-04-26T05:27:27.350Z,45.31
2019-04-26T05:30:22.272Z,45.43
2019-04-26T05:33:07.256Z,45.87
2019-04-26T05:36:03.375Z,46.19
2019-04-26T05:38:59.445Z,46.06
2019-04-26T05:42:26.740Z,46.23
2019-04-26T05:45:40.622Z,46.71
2019-04-26T05:48:41.192Z,47.13
2019-04-26T05:51:52.009Z,47.34
2019-04-26T05:55:00.294Z,47.47
2019-04-26T05:58:01.386Z,47.56
2019-04-26T06:00:46.591Z,47.73
2019-04-26T06:04:02.617Z,47.89
2019-04-26T06:06:36.095Z,48.40
2019-04-26T06:09:31.608Z,48.64
2019-04-26T06:12:08.780Z,48.26
2019-04-26T06:15:00.934Z,48.47
2019-04-26T06:18:11.378Z,48.13
2019-04-26T06:21:10.610Z,48.47
2019-04-26T06:24:19.174Z,48.72
2019-04-26T06:27:17.449Z,48.85
2019-04-26T06:29:52.598Z,48.55
2019-04-26T06:32:32.385Z,48.45
2019-04-26T06:35:06.924Z,48.45
2019-04-26T06:37:46.359Z,48.55
2019-04-26T06:40:20.161Z,48.90
2019-04-26T06:43:05.146Z,48.81
2019-04-26T06:46:16.666Z,48.81
2019-04-26T06:49:17.561Z,49.38
2019-04-26T06:51:49.939Z,49.56
2019-04-26T06:54:28.273Z,49.56
2019-04-26T06:57:48.677Z,49.54
2019-04-26T07:00:21.682Z,49.52
2019-04-26T07:03:22.508Z,49.55
2019-04-26T07:05:53.675Z,49.31
2019-04-26T07:08:56.641Z,49.45
2019-04-26T07:11:50.007Z,49.62
2019-04-26T07:14:43.225Z,49.35
2019-04-26T07:17:15.733Z,49.25
2019-04-26T07:20:19.180Z,49.27
2019-04-26T07:23:33.376Z,49.76
2019-04-26T07:26:18.975Z,50.14
2019-04-26T07:29:06.951Z,50.14
2019-04-26T07:31:44.903Z,49.82
2019-04-26T07:34:46.954Z,50.32
2019-04-26T07:38:02.640Z,50.74
2019-04-26T07:41:01.486Z,50.86
2019-04-26T07:43:57.249Z,51.87
2019-04-26T07:47:14.353Z,51.70
2019-04-26T07:50:24.459Z,52.30
2019-04-26T07:53:36.596Z,51.95
2019-04-26T07:56:27.784Z,51.37
2019-04-26T07:59:37.215Z,51.63
2019-04-26T08:02:44.522Z,51.75
2019-04-26T08:05:30.142Z,53.32
2019-04-26T08:07:59.160Z,52.25
2019-04-26T08:10:27.774Z,53.33
2019-04-26T08:13:06.094Z,52.67
2019-04-26T08:15:53.886Z,52.32
2019-04-26T08:18:27.440Z,53.02
2019-04-26T08:21:02.447Z,52.57
2019-04-26T08:23:42.223Z,52.30
2019-04-26T08:26:09.204Z,55.04
2019-04-26T08:28:37.674Z,53.15
2019-04-26T08:31:07.550Z,52.54
2019-04-26T08:33:48.231Z,52.71
2019-04-26T08:36:12.658Z,52.68
2019-04-26T08:38:41.246Z,52.53
2019-04-26T08:41:10.021Z,52.28
2019-04-26T08:43:56.452Z,52.79
2019-04-26T08:46:38.577Z,53.09
2019-04-26T08:49:21.633Z,52.41
2019-04-26T08:51:52.264Z,52.34
2019-04-26T08:54:23.625Z,52.74
2019-04-26T08:56:59.876Z,53.18
2019-04-26T08:59:30.894Z,52.44
2019-04-26T09:02:26.165Z,52.89
2019-04-26T09:05:13.904Z,53.54
2019-04-26T09:07:45.646Z,52.76
2019-04-26T09:10:15.309Z,52.71
2019-04-26T09:12:43.778Z,52.77
2019-04-26T09:15:14.204Z,52.69
2019-04-26T09:17:42.679Z,53.01
2019-04-26T09:20:11.163Z,52.86
2019-04-26T09:22:47.275Z,52.79
2019-04-26T09:25:30.216Z,53.30
2019-04-26T09:28:28.216Z,53.69
2019-04-26T09:31:21.338Z,53.59
2019-04-26T09:33:53.928Z,53.68
2019-04-26T09:36:22.377Z,53.94
2019-04-26T09:38:50.859Z,53.95
2019-04-26T09:41:19.359Z,55.02
2019-04-26T09:43:58.731Z,54.44
2019-04-26T09:46:44.446Z,53.62
2019-04-26T09:49:24.899Z,54.10
2019-04-26T09:51:53.361Z,53.36
2019-04-26T09:54:21.902Z,53.36
2019-04-26T09:56:50.546Z,53.22
2019-04-26T09:59:19.001Z,53.34
2019-04-26T10:01:47.562Z,53.66
2019-04-26T10:04:16.027Z,53.67
2019-04-26T10:06:44.917Z,53.82
2019-04-26T10:09:17.364Z,54.76
2019-04-26T10:11:50.202Z,53.96
2019-04-26T10:14:25.873Z,53.61
2019-04-26T10:17:03.176Z,53.78
2019-04-26T10:19:37.798Z,53.68
2019-04-26T10:22:06.334Z,53.84
2019-04-26T10:24:34.855Z,54.08
2019-04-26T10:27:04.910Z,53.68
2019-04-26T10:29:33.365Z,53.28
2019-04-26T10:32:01.814Z,52.99
2019-04-26T10:34:30.264Z,52.94
2019-04-26T10:37:01.530Z,52.51
2019-04-26T10:39:32.431Z,52.78
2019-04-26T10:42:00.977Z,52.57
2019-04-26T10:44:29.507Z,52.95
2019-04-26T10:46:59.804Z,53.08
2019-04-26T10:49:58.288Z,53.65
2019-04-26T10:52:41.685Z,54.10
2019-04-26T10:55:29.457Z,53.91
2019-04-26T10:58:08.049Z,53.84
2019-04-26T11:00:39.220Z,54.06
2019-04-26T11:03:07.973Z,53.82
2019-04-26T11:05:36.444Z,53.87
2019-04-26T11:08:05.099Z,53.78
2019-04-26T11:10:33.566Z,53.45
2019-04-26T11:13:02.175Z,53.56
2019-04-26T11:15:32.713Z,53.70
2019-04-26T11:18:00.831Z,54.06
2019-04-26T11:20:29.290Z,54.55
2019-04-26T11:22:57.742Z,54.21
2019-04-26T11:25:28.251Z,53.77
2019-04-26T11:27:56.482Z,53.56
2019-04-26T11:30:25.126Z,53.16
2019-04-26T11:32:53.862Z,53.53
2019-04-26T11:35:22.367Z,53.02
2019-04-26T11:37:55.206Z,52.93
2019-04-26T11:40:21.242Z,53.18
2019-04-26T11:42:49.770Z,52.92
2019-04-26T11:45:18.392Z,52.78
2019-04-26T11:47:55.860Z,53.00
2019-04-26T11:50:17.846Z,52.82
2019-04-26T11:52:46.352Z,52.68
2019-04-26T11:55:15.037Z,52.13
2019-04-26T11:57:47.018Z,52.11
2019-04-26T12:00:21.441Z,52.24
2019-04-26T12:02:50.767Z,51.88
2019-04-26T12:05:42.429Z,51.74
2019-04-26T12:08:13.859Z,51.03
2019-04-26T12:10:44.347Z,51.97
2019-04-26T12:13:12.578Z,52.30
2019-04-26T12:15:43.826Z,52.64
2019-04-26T12:18:11.335Z,52.54
2019-04-26T12:20:39.852Z,52.40
2019-04-26T12:23:08.329Z,51.77
2019-04-26T12:25:38.858Z,51.11
2019-04-26T12:28:07.492Z,50.11
2019-04-26T12:30:36.012Z,50.55
2019-04-26T12:33:04.485Z,50.51
2019-04-26T12:35:32.973Z,49.89
2019-04-26T12:38:01.513Z,49.61
2019-04-26T12:40:29.977Z,47.40
2019-04-26T12:42:58.573Z,49.84
2019-04-26T12:45:47.414Z,49.92
2019-04-26T12:48:16.843Z,51.27
2019-04-26T12:50:45.318Z,51.21
2019-04-26T12:53:14.242Z,51.12
2019-04-26T12:55:42.757Z,50.76
2019-04-26T12:58:15.209Z,50.15
2019-04-26T13:00:53.205Z,50.19
2019-04-26T13:03:20.115Z,50.43
2019-04-26T13:05:42.353Z,50.84
2019-04-26T13:08:13.099Z,50.91
2019-04-26T13:10:56.399Z,50.85
2019-04-26T13:13:46.732Z,51.25
2019-04-26T13:16:52.434Z,51.39
2019-04-26T13:19:21.141Z,51.23
2019-04-26T13:21:49.818Z,50.70
2019-04-26T13:24:18.361Z,50.82
2019-04-26T13:26:46.822Z,50.50
2019-04-26T13:29:15.392Z,50.15
2019-04-26T13:31:43.847Z,49.87
2019-04-26T13:34:12.309Z,49.58
2019-04-26T13:36:42.009Z,49.95
2019-04-26T13:39:13.340Z,50.20
2019-04-26T13:41:43.077Z,50.25
2019-04-26T13:44:11.565Z,50.62
2019-04-26T13:46:52.109Z,50.71
2019-04-26T13:49:48.206Z,51.08
2019-04-26T13:52:15.764Z,51.31
2019-04-26T13:54:44.257Z,51.13
2019-04-26T13:57:12.705Z,50.91
2019-04-26T13:59:41.202Z,51.24
2019-04-26T14:02:11.849Z,51.80
2019-04-26T14:04:41.084Z,51.40
2019-04-26T14:07:10.349Z,51.84
2019-04-26T14:09:38.849Z,51.63
2019-04-26T14:12:18.338Z,50.92
2019-04-26T14:14:38.724Z,51.10
2019-04-26T14:17:07.254Z,51.14
2019-04-26T14:19:35.685Z,50.77
2019-04-26T14:22:07.028Z,50.56
2019-04-26T14:24:48.894Z,50.64
2019-04-26T14:27:41.164Z,50.55
2019-04-26T14:30:09.848Z,50.40
2019-04-26T14:32:38.758Z,50.33
2019-04-26T14:35:07.335Z,50.44
2019-04-26T14:37:35.785Z,50.52
2019-04-26T14:40:16.799Z,51.13
2019-04-26T14:42:42.003Z,51.13
2019-04-26T14:45:07.103Z,51.36
2019-04-26T14:47:46.841Z,51.50
2019-04-26T14:50:13.751Z,51.07
2019-04-26T14:52:36.465Z,50.67
2019-04-26T14:55:06.016Z,50.84
2019-04-26T14:57:34.522Z,50.56
2019-04-26T15:00:04.986Z,50.26
2019-04-26T15:02:56.108Z,50.16
2019-04-26T15:05:46.221Z,51.22
2019-04-26T15:08:13.321Z,52.09
2019-04-26T15:10:46.622Z,51.46
2019-04-26T15:13:19.980Z,51.47
2019-04-26T15:15:45.960Z,51.01
2019-04-26T15:18:13.154Z,51.46
2019-04-26T15:20:41.625Z,51.51
2019-04-26T15:23:10.272Z,51.42
2019-04-26T15:25:41.437Z,49.06
2019-04-26T15:28:12.025Z,50.48
2019-04-26T15:30:45.998Z,50.33
2019-04-26T15:33:12.770Z,50.64
2019-04-26T15:35:39.974Z,49.64
2019-04-26T15:38:08.651Z,50.33
2019-04-26T15:40:56.224Z,49.26
2019-04-26T15:43:50.209Z,50.27
2019-04-26T15:46:35.752Z,49.85
2019-04-26T15:49:34.236Z,49.83
2019-04-26T15:52:00.790Z,49.84
2019-04-26T15:54:29.622Z,49.73
2019-04-26T15:56:58.213Z,49.85
2019-04-26T15:59:26.713Z,49.49
2019-04-26T16:01:56.357Z,49.62
2019-04-26T16:04:25.186Z,49.56
2019-04-26T16:06:53.660Z,49.65
2019-04-26T16:09:22.960Z,49.85
2019-04-26T16:11:53.115Z,49.73
2019-04-26T16:14:26.461Z,49.99
2019-04-26T16:16:52.532Z,50.34
2019-04-26T16:19:20.971Z,50.09
2019-04-26T16:21:54.074Z,49.78
2019-04-26T16:24:19.857Z,49.95
2019-04-26T16:26:54.054Z,49.93
2019-04-26T16:29:32.415Z,50.37
2019-04-26T16:32:12.460Z,49.99
2019-04-26T16:34:47.656Z,50.07
2019-04-26T16:37:15.076Z,50.18
2019-04-26T16:39:46.128Z,50.04
2019-04-26T16:42:13.978Z,50.29
2019-04-26T16:44:45.114Z,50.54
2019-04-26T16:47:13.299Z,50.91
2019-04-26T16:49:44.168Z,51.08
2019-04-26T16:52:13.994Z,51.19
2019-04-26T16:54:42.591Z,51.38
2019-04-26T16:57:12.301Z,51.25
2019-04-26T16:59:47.400Z,51.74
2019-04-26T17:02:15.622Z,51.89
2019-04-26T17:04:43.401Z,51.66
2019-04-26T17:07:13.439Z,51.61
2019-04-26T17:09:55.776Z,51.75
2019-04-26T17:12:15.012Z,51.70
2019-04-26T17:14:47.841Z,51.61
2019-04-26T17:17:14.185Z,51.94
2019-04-26T17:19:43.245Z,52.11
2019-04-26T17:22:24.706Z,52.23
2019-04-26T17:25:17.054Z,51.93
2019-04-26T17:27:47.155Z,52.05
2019-04-26T17:30:19.594Z,52.03
2019-04-26T17:32:51.733Z,51.95
2019-04-26T17:35:19.306Z,52.10
2019-04-26T17:37:47.789Z,51.93
2019-04-26T17:40:16.401Z,51.97
2019-04-26T17:42:44.893Z,52.12
2019-04-26T17:45:13.567Z,52.35
2019-04-26T17:47:42.525Z,52.88
2019-04-26T17:50:11.067Z,53.39
2019-04-26T17:52:40.921Z,53.61
2019-04-26T17:55:11.913Z,53.63
2019-04-26T17:57:42.350Z,54.01
2019-04-26T18:00:13.767Z,54.53
2019-04-26T18:02:45.988Z,54.28
2019-04-26T18:05:12.907Z,54.44
2019-04-26T18:07:45.869Z,54.44
2019-04-26T18:10:11.211Z,54.94
2019-04-26T18:12:40.970Z,55.43
2019-04-26T18:15:11.908Z,55.42
2019-04-26T18:17:57.303Z,55.38
2019-04-26T18:20:44.903Z,55.91
2019-04-26T18:23:15.360Z,55.81
2019-04-26T18:25:45.087Z,57.03
2019-04-26T18:28:16.062Z,57.30
2019-04-26T18:30:47.490Z,57.29
2019-04-26T18:33:17.547Z,57.04
2019-04-26T18:35:49.069Z,57.49
2019-04-26T18:38:15.661Z,57.56
2019-04-26T18:40:59.859Z,57.73
2019-04-26T18:43:18.798Z,58.43
2019-04-26T18:45:46.408Z,59.46
2019-04-26T18:48:15.127Z,58.85
2019-04-26T18:50:45.737Z,59.35
2019-04-26T18:53:36.700Z,60.03
2019-04-26T18:56:03.377Z,60.05
2019-04-26T18:58:34.758Z,60.50
2019-04-26T19:01:05.205Z,60.28
2019-04-26T19:03:33.789Z,60.91
2019-04-26T19:06:04.474Z,60.84
2019-04-26T19:08:43.894Z,60.62
2019-04-26T19:11:07.220Z,60.66
2019-04-26T19:13:53.141Z,61.44
2019-04-26T19:16:34.213Z,60.74
2019-04-26T19:19:22.814Z,61.05
2019-04-26T19:21:54.518Z,61.43
2019-04-26T19:24:23.179Z,61.52
2019-04-26T19:26:51.771Z,61.57
2019-04-26T19:29:27.418Z,61.13
2019-04-26T19:31:52.258Z,61.44
2019-04-26T19:34:21.919Z,64.91
2019-04-26T19:36:52.332Z,62.43
2019-04-26T19:39:31.644Z,62.25
2019-04-26T19:41:57.469Z,62.96
2019-04-26T19:44:24.112Z,62.24
2019-04-26T19:47:14.117Z,61.89
2019-04-26T19:50:09.485Z,62.10
2019-04-26T19:52:44.856Z,62.65
2019-04-26T19:55:31.861Z,62.57
2019-04-26T19:58:09.810Z,62.67
2019-04-26T20:00:38.478Z,62.70
2019-04-26T20:03:08.640Z,63.18
2019-04-26T20:05:40.611Z,63.72
2019-04-26T20:08:07.487Z,63.56
2019-04-26T20:10:40.496Z,64.01
2019-04-26T20:13:07.998Z,64.08
2019-04-26T20:15:36.661Z,64.53
2019-04-26T20:18:05.421Z,64.34
2019-04-26T20:20:36.291Z,64.92
2019-04-26T20:23:07.675Z,65.36
2019-04-26T20:25:34.354Z,65.77
2019-04-26T20:28:03.311Z,65.78
2019-04-26T20:30:46.367Z,65.79
2019-04-26T20:33:14.879Z,65.31
2019-04-26T20:35:43.363Z,66.39
2019-04-26T20:38:12.014Z,66.07
2019-04-26T20:40:43.437Z,65.96
2019-04-26T20:43:20.904Z,66.20
2019-04-26T20:45:42.535Z,66.17
2019-04-26T20:48:11.236Z,66.17
2019-04-26T20:50:41.254Z,66.48
2019-04-26T20:53:11.876Z,66.45
2019-04-26T20:55:39.988Z,66.41
2019-04-26T20:58:08.824Z,66.82
2019-04-26T21:00:37.849Z,66.54
2019-04-26T21:03:06.408Z,66.60
2019-04-26T21:05:45.699Z,66.61
2019-04-26T21:08:05.326Z,66.58
2019-04-26T21:10:35.964Z,67.05
2019-04-26T21:13:04.025Z,67.21
2019-04-26T21:15:35.861Z,67.83
2019-04-26T21:18:04.243Z,67.46
2019-04-26T21:20:36.406Z,67.54
2019-04-26T21:23:03.791Z,67.67
2019-04-26T21:25:45.747Z,67.70
2019-04-26T21:28:23.361Z,67.33
2019-04-26T21:31:03.450Z,67.04
2019-04-26T21:33:39.271Z,67.08
2019-04-26T21:36:27.785Z,67.15
2019-04-26T21:39:14.994Z,67.17
2019-04-26T21:41:45.169Z,67.48
2019-04-26T21:44:15.802Z,67.72
2019-04-26T21:46:44.386Z,67.82
2019-04-26T21:49:20.004Z,67.72
2019-04-26T21:51:44.697Z,67.84
2019-04-26T21:54:14.388Z,68.23
2019-04-26T21:56:48.472Z,68.63
2019-04-26T21:59:14.518Z,68.57
2019-04-26T22:01:43.489Z,68.43
2019-04-26T22:04:13.300Z,67.97
2019-04-26T22:06:41.766Z,67.77
2019-04-26T22:09:36.828Z,68.02
2019-04-26T22:12:06.999Z,68.14
2019-04-26T22:14:37.239Z,68.37
2019-04-26T22:17:10.330Z,68.52
2019-04-26T22:20:06.709Z,68.45
2019-04-26T22:22:52.926Z,68.53
2019-04-26T22:25:23.172Z,68.46
2019-04-26T22:27:54.014Z,68.65
2019-04-26T22:30:28.496Z,68.76
2019-04-26T22:32:58.387Z,68.90
2019-04-26T22:35:26.986Z,68.91
2019-04-26T22:37:55.447Z,68.83
2019-04-26T22:40:23.925Z,68.84
2019-04-26T22:42:57.157Z,68.92
2019-04-26T22:45:53.945Z,69.20
2019-04-26T22:48:29.830Z,69.34
2019-04-26T22:50:59.560Z,69.27
2019-04-26T22:53:28.140Z,69.27
2019-04-26T22:55:57.802Z,69.46
2019-04-26T22:58:28.769Z,69.43
2019-04-26T23:00:58.503Z,69.55
2019-04-26T23:03:27.282Z,69.67
2019-04-26T23:05:55.765Z,69.79
2019-04-26T23:08:24.329Z,69.89
2019-04-26T23:10:54.540Z,69.90
2019-04-26T23:13:45.309Z,70.06
2019-04-26T23:16:34.951Z,70.20
2019-04-26T23:19:15.297Z,70.18
2019-04-26T23:21:52.890Z,70.09
2019-04-26T23:24:17.631Z,69.93
2019-04-26T23:26:45.408Z,69.65
2019-04-26T23:29:16.323Z,69.85
2019-04-26T23:31:44.734Z,69.94
2019-04-26T23:34:14.265Z,70.07
2019-04-26T23:36:43.682Z,70.11
2019-04-26T23:39:13.272Z,70.15
2019-04-26T23:41:43.068Z,70.27
2019-04-26T23:44:13.227Z,70.12
2019-04-26T23:46:43.279Z,70.13
2019-04-26T23:49:12.023Z,70.17
2019-04-26T23:51:43.117Z,70.29
2019-04-26T23:54:10.657Z,70.36
2019-04-26T23:56:39.138Z,70.37
2019-04-26T23:59:07.843Z,70.37
